createdAt,value
2016-08-05T14:28:42.331Z,1010
2016-08-05T14:29:41.468Z,985
2016-08-05T14:30:43.143Z,980
2016-08-05T14:31:41.559Z,955
2016-08-05T14:32:43.001Z,965
2016-08-05T14:33:57.646Z,970
2016-08-05T14:34:56.985Z,995
2016-08-05T14:35:57.249Z,1000
2016-08-05T14:36:43.193Z,1010
2016-08-05T14:37:43.390Z,1015
2016-08-05T14:38:43.262Z,1005
2016-08-05T14:39:41.723Z,940
2016-08-05T14:40:41.777Z,875
2016-08-05T14:41:42.745Z,840
2016-08-05T14:43:41.885Z,745
2016-08-05T14:44:41.254Z,690
2016-08-05T14:45:42.879Z,670
2016-08-05T14:46:42.734Z,655
2016-08-05T14:47:56.975Z,630
2016-08-05T14:48:42.834Z,610
2016-08-05T14:49:43.179Z,615
2016-08-05T14:50:42.439Z,630
2016-08-05T14:51:43.178Z,600
2016-08-05T14:52:43.006Z,605
2016-08-05T14:53:43.046Z,620
2016-08-05T14:54:43.100Z,635
2016-08-05T14:55:43.148Z,645
2016-08-05T14:56:43.197Z,660
2016-08-05T14:58:42.613Z,685
2016-08-05T14:59:43.348Z,670
2016-08-05T15:00:43.603Z,675
2016-08-05T15:01:42.018Z,675
2016-08-05T15:02:43.682Z,695
2016-08-05T15:03:43.719Z,710
2016-08-05T15:04:43.560Z,710
2016-08-05T15:05:42.912Z,665
2016-08-05T15:06:43.658Z,670
2016-08-05T15:07:43.025Z,660
2016-08-05T15:08:43.709Z,655
2016-08-05T15:09:43.103Z,680
2016-08-05T15:10:43.166Z,645
2016-08-05T15:11:43.881Z,655
2016-08-05T15:13:43.996Z,610
2016-08-05T15:14:43.995Z,615
2016-08-05T15:15:44.060Z,645
2016-08-05T15:16:44.108Z,615
2016-08-05T15:17:44.145Z,625
2016-08-05T15:18:42.788Z,635
2016-08-05T15:19:44.271Z,660
2016-08-05T15:20:44.302Z,675
2016-08-05T15:21:44.339Z,675
2016-08-05T15:22:43.685Z,665
2016-08-05T15:23:43.713Z,640
2016-08-05T15:24:43.799Z,635
2016-08-05T15:25:44.528Z,615
2016-08-05T15:26:44.533Z,620
2016-08-05T15:27:44.579Z,635
2016-08-05T15:28:43.234Z,665
2016-08-05T15:29:44.734Z,650
2016-08-05T15:30:44.734Z,655
2016-08-05T15:31:44.806Z,660
2016-08-05T15:32:44.122Z,635
2016-08-05T15:33:44.871Z,620
2016-08-05T15:34:44.936Z,625
2016-08-05T15:35:44.249Z,625
2016-08-05T15:36:45.032Z,655
2016-08-05T15:37:45.111Z,665
2016-08-05T15:38:45.147Z,645
2016-08-05T15:39:44.719Z,645
2016-08-05T15:40:45.417Z,665
2016-08-05T15:41:44.524Z,650
2016-08-05T15:42:45.320Z,625
2016-08-05T15:43:44.650Z,645
2016-08-05T15:44:45.421Z,630
2016-08-05T15:45:44.736Z,605
2016-08-05T15:46:44.780Z,580
2016-08-05T15:47:44.814Z,570
2016-08-05T15:48:45.579Z,545
2016-08-05T15:49:45.798Z,525
2016-08-05T15:50:45.000Z,520
2016-08-05T15:51:45.715Z,500
2016-08-05T15:52:44.343Z,475
2016-08-05T15:53:45.985Z,450
2016-08-05T15:54:45.837Z,420
2016-08-05T15:55:45.891Z,410
2016-08-05T15:56:45.925Z,405
2016-08-05T15:57:45.306Z,400
2016-08-05T15:58:46.092Z,390
2016-08-05T15:59:46.061Z,405
2016-08-05T16:00:45.427Z,425
2016-08-05T16:01:46.172Z,440
2016-08-05T16:02:46.204Z,465
2016-08-05T16:03:45.550Z,505
2016-08-05T16:04:45.624Z,525
2016-08-05T16:05:45.642Z,530
2016-08-05T16:06:46.576Z,525
2016-08-05T16:07:46.445Z,535
2016-08-05T16:08:46.447Z,485
2016-08-05T16:09:46.553Z,460
2016-08-05T16:10:46.552Z,460
2016-08-05T16:11:45.911Z,440
2016-08-05T16:12:46.695Z,425
2016-08-05T16:13:46.722Z,435
2016-08-05T16:14:46.735Z,415
2016-08-05T16:15:46.801Z,400
2016-08-05T16:16:46.843Z,385
2016-08-05T16:17:46.878Z,400
2016-08-05T16:18:46.918Z,410
2016-08-05T16:19:46.287Z,405
2016-08-05T16:20:47.008Z,445
2016-08-05T16:21:47.034Z,425
2016-08-05T16:22:47.106Z,505
2016-08-05T16:23:46.428Z,515
2016-08-05T16:24:47.186Z,460
2016-08-05T16:25:47.242Z,475
2016-08-05T16:26:46.579Z,420
2016-08-05T16:27:47.327Z,420
2016-08-05T16:28:46.003Z,450
2016-08-05T16:29:47.417Z,470
2016-08-05T16:30:47.497Z,440
2016-08-05T16:31:47.537Z,420
2016-08-05T16:32:46.867Z,430
2016-08-05T16:33:47.624Z,430
2016-08-05T16:34:47.650Z,435
2016-08-05T16:35:47.666Z,440
2016-08-05T16:36:47.027Z,480
2016-08-05T16:37:47.794Z,495
2016-08-05T16:38:47.104Z,445
2016-08-05T16:39:46.451Z,435
2016-08-05T16:40:47.963Z,415
2016-08-05T16:41:47.946Z,370
2016-08-05T16:42:47.319Z,395
2016-08-05T16:43:47.359Z,370
2016-08-05T16:44:48.101Z,370
2016-08-05T16:45:48.138Z,370
2016-08-05T16:46:48.190Z,325
2016-08-05T16:47:47.515Z,345
2016-08-05T16:48:48.303Z,335
2016-08-05T16:49:47.955Z,320
2016-08-05T16:50:48.383Z,320
2016-08-05T16:51:48.452Z,320
2016-08-05T16:52:48.456Z,280
2016-08-05T16:53:48.503Z,245
2016-08-05T16:54:48.529Z,235
2016-08-05T16:55:48.119Z,220
2016-08-05T16:56:48.701Z,210
2016-08-05T16:57:48.666Z,205
2016-08-05T16:58:48.732Z,195
2016-08-05T16:59:48.077Z,175
2016-08-05T17:00:47.450Z,150
2016-08-05T17:01:49.114Z,155
2016-08-05T17:02:48.938Z,165
2016-08-05T17:03:48.239Z,180
2016-08-05T17:05:03.248Z,190
2016-08-05T17:05:49.069Z,180
2016-08-05T17:06:49.090Z,175
2016-08-05T17:07:49.155Z,165
2016-08-05T17:08:49.209Z,175
2016-08-05T17:09:49.222Z,175
2016-08-05T17:10:49.300Z,170
2016-08-05T17:11:49.291Z,170
2016-08-05T17:12:49.332Z,155
2016-08-05T17:13:49.424Z,145
2016-08-05T17:14:49.464Z,140
2016-08-05T17:15:49.520Z,140
2016-08-05T17:16:49.568Z,135
2016-08-05T17:17:49.576Z,110
2016-08-05T17:18:48.241Z,100
2016-08-05T17:19:49.702Z,110
2016-08-05T17:20:49.742Z,110
2016-08-05T17:21:49.075Z,100
2016-08-05T17:22:49.137Z,95
2016-08-05T17:23:49.209Z,95
2016-08-05T17:24:49.236Z,100
2016-08-05T17:25:49.995Z,100
2016-08-05T17:26:49.989Z,110
2016-08-05T17:27:50.047Z,105
2016-08-05T17:28:50.086Z,85
2016-08-05T17:29:49.443Z,70
2016-08-05T17:30:50.185Z,65
2016-08-05T17:31:49.510Z,65
2016-08-05T17:32:50.272Z,65
2016-08-05T17:33:49.627Z,70
2016-08-05T17:34:49.661Z,65
2016-08-05T17:35:49.747Z,60
2016-08-05T17:36:49.762Z,55
2016-08-05T17:37:50.494Z,60
2016-08-05T17:38:50.552Z,70
2016-08-05T17:39:50.591Z,60
2016-08-05T17:40:49.245Z,65
2016-08-05T17:41:50.032Z,60
2016-08-05T17:42:50.715Z,60
2016-08-05T17:43:50.778Z,65
2016-08-05T17:44:50.098Z,65
2016-08-05T17:45:50.196Z,60
2016-08-05T17:46:51.123Z,60
2016-08-05T17:47:50.945Z,65
2016-08-05T17:48:50.291Z,65
2016-08-05T17:49:51.249Z,65
2016-08-05T17:50:51.096Z,70
2016-08-05T17:51:50.402Z,70
2016-08-05T17:52:51.173Z,70
2016-08-05T17:53:50.513Z,65
2016-08-05T17:54:51.276Z,55
2016-08-05T17:55:50.611Z,45
2016-08-05T17:56:50.675Z,60
2016-08-05T17:57:49.981Z,45
2016-08-05T17:58:49.367Z,50
2016-08-05T17:59:51.495Z,50
2016-08-05T18:00:50.858Z,50
2016-08-05T18:01:50.194Z,50
2016-08-05T18:02:51.614Z,45
2016-08-05T18:03:51.686Z,45
2016-08-05T18:04:50.339Z,45
2016-08-05T18:05:51.034Z,45
2016-08-05T18:06:51.809Z,35
2016-08-05T18:07:51.842Z,35
2016-08-05T18:08:51.205Z,35
2016-08-05T18:09:51.931Z,40
2016-08-05T18:10:51.305Z,40
2016-08-05T18:11:52.029Z,40
2016-08-05T18:12:52.062Z,35
2016-08-05T18:13:51.455Z,35
2016-08-05T18:14:51.454Z,35
2016-08-05T18:15:51.541Z,25
2016-08-05T18:16:52.450Z,25
2016-08-05T18:17:51.623Z,25
2016-08-05T18:18:51.663Z,25
2016-08-05T18:19:51.683Z,20
2016-08-05T18:20:51.732Z,15
2016-08-05T18:21:51.081Z,15
2016-08-05T18:22:51.858Z,15
2016-08-05T18:23:52.558Z,10
2016-08-05T18:24:51.225Z,10
2016-08-05T18:25:51.981Z,10
2016-08-05T18:26:52.014Z,10
2016-08-05T18:27:52.824Z,10
2016-08-05T18:28:52.132Z,10
2016-08-05T18:29:52.163Z,10
2016-08-05T18:30:52.223Z,10
2016-08-05T18:31:52.940Z,15
2016-08-05T18:32:51.579Z,10
2016-08-05T18:33:52.333Z,10
2016-08-05T18:34:52.360Z,10
2016-08-05T18:35:51.937Z,10
2016-08-05T18:36:53.169Z,10
2016-08-05T18:37:52.499Z,10
2016-08-05T18:38:52.525Z,5
2016-08-05T18:39:52.606Z,5
2016-08-05T18:40:53.353Z,5
2016-08-05T18:41:53.391Z,5
2016-08-05T18:42:53.426Z,5
2016-08-05T18:43:53.506Z,5
2016-08-05T18:44:52.810Z,5
2016-08-05T18:45:52.848Z,0
2016-08-05T18:46:52.231Z,0
2016-08-05T18:47:53.690Z,0
2016-08-05T18:48:53.676Z,0
2016-08-05T18:49:53.849Z,0
2016-08-05T18:50:53.809Z,0
2016-08-05T18:51:53.867Z,0
2016-08-05T18:52:53.857Z,0
2016-08-05T18:53:53.229Z,0
2016-08-05T18:54:52.591Z,0
2016-08-05T18:55:54.046Z,0
2016-08-05T18:56:54.088Z,0
2016-08-05T18:57:53.387Z,0
2016-08-05T18:58:54.184Z,0
2016-08-05T18:59:54.217Z,0
2016-08-05T19:00:53.545Z,0
2016-08-05T19:01:54.338Z,0
2016-08-05T19:02:53.649Z,0
2016-08-05T19:03:54.389Z,0
2016-08-05T19:04:54.429Z,0
2016-08-05T19:05:54.455Z,0
2016-08-05T19:06:53.104Z,0
2016-08-05T19:07:54.589Z,0
2016-08-05T19:08:53.908Z,0
2016-08-05T19:09:53.982Z,0
2016-08-05T19:10:54.021Z,0
2016-08-05T19:11:54.781Z,0
2016-08-05T19:12:54.790Z,0
2016-08-05T19:13:54.833Z,0
2016-08-05T19:14:54.860Z,0
2016-08-05T19:15:54.922Z,0
2016-08-05T19:16:54.286Z,0
2016-08-05T19:17:55.030Z,0
2016-08-05T19:18:55.071Z,0
2016-08-05T19:19:54.458Z,0
2016-08-05T19:20:54.458Z,0
2016-08-05T19:21:54.487Z,0
2016-08-05T19:22:55.260Z,0
2016-08-05T19:23:55.304Z,0
2016-08-05T19:24:55.336Z,0
2016-08-05T19:25:54.707Z,0
2016-08-05T19:26:54.755Z,0
2016-08-05T19:27:55.495Z,0
2016-08-05T19:29:54.859Z,0
2016-08-05T19:30:54.927Z,0
2016-08-05T19:31:54.276Z,0
2016-08-05T19:32:55.000Z,0
2016-08-05T19:33:55.021Z,0
2016-08-05T19:34:55.089Z,0
2016-08-05T19:35:54.415Z,0
2016-08-05T19:36:55.193Z,0
2016-08-05T19:37:55.914Z,0
2016-08-05T19:38:55.976Z,0
2016-08-05T19:39:56.057Z,0
2016-08-05T19:40:55.364Z,0
2016-08-05T19:41:56.088Z,0
2016-08-05T19:42:56.153Z,0
2016-08-05T19:44:56.262Z,0
2016-08-05T19:45:56.289Z,0
2016-08-05T19:46:56.331Z,0
2016-08-05T19:47:55.651Z,0
2016-08-05T19:48:56.388Z,0
2016-08-05T19:49:55.739Z,0
2016-08-05T19:50:55.094Z,0
2016-08-05T19:51:56.519Z,0
2016-08-05T19:52:55.916Z,0
2016-08-05T19:53:55.933Z,0
2016-08-05T19:54:55.955Z,0
2016-08-05T19:55:56.000Z,0
2016-08-05T19:56:56.798Z,0
2016-08-05T19:57:56.155Z,0
2016-08-05T19:58:56.853Z,0
2016-08-05T19:59:56.897Z,0
2016-08-05T20:00:56.951Z,0
2016-08-05T20:01:56.315Z,0
2016-08-05T20:02:57.017Z,0
2016-08-05T20:03:56.382Z,0
2016-08-05T20:04:57.092Z,0
2016-08-05T20:05:57.175Z,0
2016-08-05T20:06:57.263Z,0
2016-08-05T20:07:57.267Z,0
2016-08-05T20:08:56.611Z,0
2016-08-05T20:09:57.328Z,0
2016-08-05T20:10:57.408Z,0
2016-08-05T20:11:56.730Z,0
2016-08-05T20:12:56.824Z,0
2016-08-05T20:13:57.491Z,0
2016-08-05T20:14:57.598Z,0
2016-08-05T20:15:56.918Z,0
2016-08-05T20:16:56.950Z,0
2016-08-05T20:17:57.655Z,0
2016-08-05T20:18:56.999Z,0
2016-08-05T20:19:57.058Z,0
2016-08-05T20:20:57.839Z,0
2016-08-05T20:21:57.883Z,0
2016-08-05T20:22:56.506Z,0
2016-08-05T20:23:57.948Z,0
2016-08-05T20:24:57.989Z,0
2016-08-05T20:26:11.579Z,0
2016-08-05T20:26:57.385Z,0
2016-08-05T20:27:58.165Z,0
2016-08-05T20:28:58.190Z,0
2016-08-05T20:29:56.811Z,0
2016-08-05T20:30:58.261Z,0
2016-08-05T20:31:58.313Z,0
2016-08-05T20:32:58.357Z,0
2016-08-05T20:33:58.545Z,0
2016-08-05T20:34:57.774Z,0
2016-08-05T20:35:57.800Z,0
2016-08-05T20:36:58.053Z,0
2016-08-05T20:37:57.863Z,0
2016-08-05T20:38:58.630Z,0
2016-08-05T20:39:58.653Z,0
2016-08-05T20:40:58.019Z,0
2016-08-05T20:41:58.757Z,0
2016-08-05T20:42:58.118Z,0
2016-08-05T20:43:57.453Z,0
2016-08-05T20:44:58.927Z,0
2016-08-05T20:45:57.528Z,0
2016-08-05T20:46:57.553Z,0
2016-08-05T20:47:59.031Z,0
2016-08-05T20:48:59.058Z,0
2016-08-05T20:49:59.328Z,0
2016-08-05T20:50:58.490Z,0
2016-08-05T20:51:58.538Z,0
2016-08-05T20:52:58.535Z,0
2016-08-05T20:53:59.328Z,0
2016-08-05T20:54:58.629Z,0
2016-08-05T20:55:58.651Z,0
2016-08-05T20:56:59.451Z,0
2016-08-05T20:57:58.754Z,0
2016-08-05T20:58:58.845Z,0
2016-08-05T20:59:58.191Z,0
2016-08-05T21:00:59.606Z,0
2016-08-05T21:01:59.023Z,0
2016-08-05T21:02:59.697Z,0
2016-08-05T21:03:59.723Z,0
2016-08-05T21:04:57.676Z,0
2016-08-05T21:05:59.868Z,0
2016-08-05T21:06:59.891Z,0
2016-08-05T21:07:59.238Z,0
2016-08-05T21:08:59.271Z,0
2016-08-05T21:09:59.988Z,0
2016-08-05T21:10:59.359Z,0
2016-08-05T21:12:00.085Z,0
2016-08-05T21:12:59.444Z,0
2016-08-05T21:14:00.200Z,0
2016-08-05T21:15:00.226Z,0
2016-08-05T21:15:58.886Z,0
2016-08-05T21:16:58.225Z,0
2016-08-05T21:17:59.711Z,0
2016-08-05T21:19:00.455Z,0
2016-08-05T21:20:00.458Z,0
2016-08-05T21:20:59.811Z,0
2016-08-05T21:22:00.532Z,0
2016-08-05T21:23:00.592Z,0
2016-08-05T21:24:00.673Z,0
2016-08-05T21:24:59.979Z,0
2016-08-05T21:26:00.059Z,0
2016-08-05T21:27:00.760Z,0
2016-08-05T21:28:00.087Z,0
2016-08-05T21:29:00.861Z,0
2016-08-05T21:30:00.230Z,0
2016-08-05T21:31:00.975Z,0
2016-08-05T21:32:00.965Z,0
2016-08-05T21:33:01.031Z,0
2016-08-05T21:34:01.083Z,0
2016-08-05T21:35:01.096Z,0
2016-08-05T21:36:01.182Z,0
2016-08-05T21:37:00.517Z,0
2016-08-05T21:38:01.297Z,0
2016-08-05T21:38:59.942Z,0
2016-08-05T21:40:00.631Z,0
2016-08-05T21:41:01.408Z,0
2016-08-05T21:42:01.434Z,0
2016-08-05T21:43:00.785Z,0
2016-08-05T21:44:00.152Z,0
2016-08-05T21:45:01.572Z,0
2016-08-05T21:46:01.595Z,0
2016-08-05T21:47:01.670Z,0
2016-08-05T21:48:01.700Z,0
2016-08-05T21:49:00.365Z,0
2016-08-05T21:50:01.349Z,0
2016-08-05T21:51:01.872Z,0
2016-08-05T21:52:00.510Z,0
2016-08-05T21:53:01.258Z,0
2016-08-05T21:54:00.589Z,0
2016-08-05T21:55:01.332Z,0
2016-08-05T21:56:01.356Z,0
2016-08-05T21:57:02.120Z,0
2016-08-05T21:58:01.482Z,0
2016-08-05T21:59:01.484Z,0
2016-08-05T22:00:01.539Z,0
2016-08-05T22:01:02.337Z,0
2016-08-05T22:02:02.371Z,0
2016-08-05T22:03:02.357Z,0
2016-08-05T22:04:02.437Z,0
2016-08-05T22:05:02.514Z,0
2016-08-05T22:06:02.524Z,0
2016-08-05T22:07:02.578Z,0
2016-08-05T22:08:02.629Z,0
2016-08-05T22:09:02.660Z,0
2016-08-05T22:10:02.706Z,0
2016-08-05T22:11:02.754Z,0
2016-08-05T22:12:02.823Z,0
2016-08-05T22:13:02.142Z,0
2016-08-05T22:14:02.920Z,0
2016-08-05T22:15:01.636Z,0
2016-08-05T22:16:02.980Z,0
2016-08-05T22:17:03.032Z,0
2016-08-05T22:18:03.052Z,0
2016-08-05T22:19:02.409Z,0
2016-08-05T22:20:03.148Z,0
2016-08-05T22:21:02.478Z,0
2016-08-05T22:22:03.213Z,0
2016-08-05T22:23:03.317Z,0
2016-08-05T22:24:03.349Z,0
2016-08-05T22:25:02.688Z,0
2016-08-05T22:26:03.433Z,0
2016-08-05T22:27:03.467Z,0
2016-08-05T22:28:02.104Z,0
2016-08-05T22:29:03.563Z,0
2016-08-05T22:30:03.630Z,0
2016-08-05T22:31:03.687Z,0
2016-08-05T22:32:03.692Z,0
2016-08-05T22:33:03.727Z,0
2016-08-05T22:34:03.817Z,0
2016-08-05T22:35:03.142Z,0
2016-08-05T22:36:03.187Z,0
2016-08-05T22:37:03.930Z,0
2016-08-05T22:38:03.999Z,0
2016-08-05T22:39:03.363Z,0
2016-08-05T22:40:04.085Z,0
2016-08-05T22:41:03.392Z,0
2016-08-05T22:42:04.119Z,0
2016-08-05T22:43:04.185Z,0
2016-08-05T22:44:02.846Z,0
2016-08-05T22:45:04.312Z,0
2016-08-05T22:46:03.616Z,0
2016-08-05T22:47:04.368Z,0
2016-08-05T22:48:04.408Z,0
2016-08-05T22:49:03.750Z,0
2016-08-05T22:50:04.748Z,0
2016-08-05T22:51:03.855Z,0
2016-08-05T22:52:04.616Z,0
2016-08-05T22:53:03.223Z,0
2016-08-05T22:54:04.707Z,0
2016-08-05T22:55:04.721Z,0
2016-08-05T22:56:03.362Z,0
2016-08-05T22:57:04.819Z,0
2016-08-05T22:58:04.887Z,0
2016-08-05T22:59:04.939Z,0
2016-08-05T23:00:04.945Z,0
2016-08-05T23:01:05.007Z,0
2016-08-05T23:02:04.371Z,0
2016-08-05T23:03:03.725Z,0
2016-08-05T23:04:03.738Z,0
2016-08-05T23:05:05.201Z,0
2016-08-05T23:06:04.561Z,0
2016-08-05T23:07:04.569Z,0
2016-08-05T23:08:05.312Z,0
2016-08-05T23:09:03.968Z,0
2016-08-05T23:10:04.696Z,0
2016-08-05T23:11:05.488Z,0
2016-08-05T23:12:05.519Z,0
2016-08-05T23:13:05.564Z,0
2016-08-05T23:14:04.168Z,0
2016-08-05T23:15:04.948Z,0
2016-08-05T23:16:04.999Z,0
2016-08-05T23:17:05.735Z,0
2016-08-05T23:18:05.043Z,0
2016-08-05T23:19:05.144Z,0
2016-08-05T23:20:05.884Z,0
2016-08-05T23:21:05.175Z,0
2016-08-05T23:22:05.230Z,0
2016-08-05T23:23:05.519Z,0
2016-08-05T23:24:06.041Z,0
2016-08-05T23:25:05.403Z,0
2016-08-05T23:26:05.436Z,0
2016-08-05T23:27:05.487Z,0
2016-08-05T23:28:05.500Z,0
2016-08-05T23:29:05.609Z,0
2016-08-05T23:30:05.631Z,0
2016-08-05T23:31:04.994Z,0
2016-08-05T23:32:05.712Z,0
2016-08-05T23:33:06.467Z,0
2016-08-05T23:34:05.822Z,0
2016-08-05T23:35:05.173Z,0
2016-08-05T23:36:05.900Z,0
2016-08-05T23:37:05.945Z,0
2016-08-05T23:38:06.669Z,0
2016-08-05T23:39:06.021Z,0
2016-08-05T23:40:05.408Z,0
2016-08-05T23:41:06.859Z,0
2016-08-05T23:42:06.146Z,0
2016-08-05T23:43:06.253Z,0
2016-08-05T23:44:06.251Z,0
2016-08-05T23:45:06.332Z,0
2016-08-05T23:46:07.052Z,0
2016-08-05T23:47:07.056Z,0
2016-08-05T23:48:06.449Z,0
2016-08-05T23:49:06.724Z,0
2016-08-05T23:50:06.020Z,0
2016-08-05T23:51:07.285Z,0
2016-08-05T23:52:06.619Z,0
2016-08-05T23:53:06.666Z,0
2016-08-05T23:54:07.427Z,0
2016-08-05T23:55:07.490Z,0
2016-08-05T23:56:07.530Z,0
2016-08-05T23:57:06.385Z,0
2016-08-05T23:58:07.604Z,0
2016-08-05T23:59:07.658Z,0
